Time;durP1;ratioP1;P1;durP2;ratioP2;P2;SDS_P1;SDS_P2;PMS_P1;PMS_P2;Temp;Humidity;BMP_temperature;BMP_pressure;BME280_temperature;BME280_humidity;BME280_pressure;Samples;Min_cycle;Max_cycle;Signal;HPM_P1;HPM_P2
2022/01/28 00:00:49;;;;;;;;;;;5.80;1.00;;;;;;5024360;28;19920;-80
2022/01/28 00:03:16;;;;;;;;;;;5.80;1.00;;;;;;5038204;28;20019;-80
2022/01/28 00:05:42;;;;;;;;;;;5.80;1.00;;;;;;5039128;28;19918;-80
2022/01/28 00:08:08;;;;;;;;;;;5.70;1.00;;;;;;5040659;28;19928;-80
2022/01/28 00:10:34;;;;;;;;;;;5.70;1.00;;;;;;5024086;28;19928;-80
2022/01/28 00:39:44;;;;;;;;;;;5.50;1.00;;;;;;5024617;28;19957;-80
2022/01/28 00:42:09;;;;;;;;;;;5.50;1.00;;;;;;5042373;28;19944;-80
2022/01/28 00:44:35;;;;;;;;;;;5.40;1.00;;;;;;5025373;28;20289;-80
2022/01/28 00:47:01;;;;;;;;;;;5.40;1.00;;;;;;5043700;28;19913;-80
2022/01/28 00:49:26;;;;;;;;;;;5.40;1.00;;;;;;5030402;28;19917;-80
2022/01/28 00:51:52;;;;;;;;;;;5.30;1.00;;;;;;5047071;28;19937;-79
2022/01/28 00:54:18;;;;;;;;;;;5.30;1.00;;;;;;5030166;28;20392;-80
2022/01/28 00:56:44;;;;;;;;;;;5.20;1.00;;;;;;5044952;28;19918;-81
2022/01/28 00:59:09;;;;;;;;;;;5.20;1.00;;;;;;5028081;28;19913;-80
2022/01/28 01:01:34;;;;;;;;;;;5.20;1.00;;;;;;5045625;28;20350;-80
2022/01/28 01:04:00;;;;;;;;;;;5.20;1.00;;;;;;5028164;28;19913;-80
2022/01/28 01:06:26;;;;;;;;;;;5.10;1.00;;;;;;5045247;28;19910;-80
2022/01/28 01:08:52;;;;;;;;;;;5.10;1.00;;;;;;5022024;28;19925;-80
2022/01/28 01:11:20;;;;;;;;;;;5.10;1.00;;;;;;5020721;28;19913;-80
2022/01/28 01:13:47;;;;;;;;;;;5.10;1.00;;;;;;5026806;28;19920;-80
2022/01/28 01:16:15;;;;;;;;;;;5.00;1.00;;;;;;5028598;28;19968;-80
2022/01/28 01:19:04;;;;;;;;;;;5.00;1.00;;;;;;5027110;28;19921;-80
2022/01/28 01:21:37;;;;;;;;;;;5.00;1.00;;;;;;5022503;28;19937;-80
2022/01/28 01:24:02;;;;;;;;;;;5.00;1.00;;;;;;5029546;28;19921;-80
2022/01/28 01:26:32;;;;;;;;;;;4.90;1.00;;;;;;5027332;28;19917;-80
2022/01/28 01:28:57;;;;;;;;;;;4.90;1.00;;;;;;5027240;28;19917;-80
2022/01/28 01:31:23;;;;;;;;;;;4.90;1.00;;;;;;5028436;28;19914;-80
2022/01/28 01:34:06;;;;;;;;;;;4.90;1.00;;;;;;5029529;28;19936;-80
2022/01/28 01:36:32;;;;;;;;;;;4.80;1.00;;;;;;5023044;28;20159;-81
2022/01/28 01:38:57;;;;;;;;;;;4.80;1.00;;;;;;5029428;28;19914;-80
2022/01/28 01:41:33;;;;;;;;;;;4.80;1.00;;;;;;5049341;28;19913;-80
2022/01/28 01:44:04;;;;;;;;;;;4.80;1.00;;;;;;5044036;28;19940;-80
2022/01/28 01:52:02;;;;;;;;;;;4.70;1.00;;;;;;5020000;28;19920;-80
2022/01/28 01:54:28;;;;;;;;;;;4.80;1.00;;;;;;5033916;28;19917;-80
2022/01/28 01:56:55;;;;;;;;;;;4.70;1.00;;;;;;5024106;28;19933;-81
2022/01/28 01:59:20;;;;;;;;;;;4.70;1.00;;;;;;5043221;28;19914;-78
2022/01/28 02:01:46;;;;;;;;;;;4.70;1.00;;;;;;5040643;28;19971;-80
2022/01/28 02:04:11;;;;;;;;;;;4.70;1.00;;;;;;5043128;28;19913;-80
2022/01/28 02:06:38;;;;;;;;;;;4.70;1.00;;;;;;5045590;28;19910;-80
2022/01/28 02:09:04;;;;;;;;;;;4.70;1.00;;;;;;5029416;28;19928;-80
2022/01/28 02:11:30;;;;;;;;;;;4.70;1.00;;;;;;5046318;28;20088;-80
2022/01/28 02:13:55;;;;;;;;;;;4.70;1.00;;;;;;5035462;28;19936;-80
2022/01/28 02:16:21;;;;;;;;;;;4.70;1.00;;;;;;5045611;28;19917;-80
2022/01/28 02:18:46;;;;;;;;;;;4.70;1.00;;;;;;5042888;28;19921;-80
2022/01/28 02:21:15;;;;;;;;;;;4.70;1.00;;;;;;5030436;28;19968;-80
2022/01/28 02:23:42;;;;;;;;;;;4.70;1.00;;;;;;5038806;28;19914;-80
2022/01/28 02:26:12;;;;;;;;;;;4.70;1.00;;;;;;5030123;28;19921;-80
2022/01/28 02:28:39;;;;;;;;;;;4.80;1.00;;;;;;5044324;28;19914;-80
2022/01/28 02:31:05;;;;;;;;;;;4.80;1.00;;;;;;5032383;28;19916;-80
2022/01/28 02:33:30;;;;;;;;;;;4.80;1.00;;;;;;5047509;28;20939;-80
2022/01/28 02:36:03;;;;;;;;;;;4.80;1.00;;;;;;5028760;28;19918;-80
2022/01/28 02:38:28;;;;;;;;;;;4.80;1.00;;;;;;5043116;28;19948;-81
2022/01/28 02:40:59;;;;;;;;;;;4.80;1.00;;;;;;5027572;28;19924;-80
2022/01/28 02:45:53;;;;;;;;;;;4.80;1.00;;;;;;5029767;28;19918;-81
2022/01/28 02:48:22;;;;;;;;;;;4.80;1.00;;;;;;5036711;28;19913;-81
2022/01/28 02:53:37;;;;;;;;;;;4.80;1.00;;;;;;5021251;28;19989;-80
2022/01/28 02:56:12;;;;;;;;;;;4.80;1.00;;;;;;5028677;28;19921;-80
2022/01/28 02:58:37;;;;;;;;;;;4.70;1.00;;;;;;5032566;28;19920;-80
2022/01/28 03:01:03;;;;;;;;;;;4.70;1.00;;;;;;5042884;28;19917;-80
2022/01/28 03:03:28;;;;;;;;;;;4.70;1.00;;;;;;5038785;28;19920;-80
2022/01/28 03:05:54;;;;;;;;;;;4.70;1.00;;;;;;5026891;28;20324;-80
2022/01/28 03:08:24;;;;;;;;;;;4.60;1.00;;;;;;5043865;28;19981;-80
2022/01/28 03:11:14;;;;;;;;;;;4.60;1.00;;;;;;5024097;28;19957;-80
2022/01/28 03:16:12;;;;;;;;;;;4.60;1.00;;;;;;5028545;28;19920;-80
2022/01/28 03:18:46;;;;;;;;;;;4.60;1.00;;;;;;5043237;28;19939;-80
2022/01/28 03:23:56;;;;;;;;;;;4.70;1.00;;;;;;5028032;28;19920;-80
2022/01/28 03:26:24;;;;;;;;;;;4.70;1.00;;;;;;5028974;28;19913;-80
2022/01/28 03:28:50;;;;;;;;;;;4.70;1.00;;;;;;5034242;28;20274;-80
2022/01/28 03:31:15;;;;;;;;;;;4.70;1.00;;;;;;5027897;28;19937;-80
2022/01/28 03:33:41;;;;;;;;;;;4.70;1.00;;;;;;5041377;28;19914;-80
2022/01/28 03:36:09;;;;;;;;;;;4.70;1.00;;;;;;5029266;28;19936;-80
2022/01/28 03:38:35;;;;;;;;;;;4.70;1.00;;;;;;5035992;28;19925;-80
2022/01/28 03:41:01;;;;;;;;;;;4.70;1.00;;;;;;5027837;28;20388;-80
2022/01/28 03:43:26;;;;;;;;;;;4.70;1.00;;;;;;5029060;28;19941;-81
2022/01/28 03:45:52;;;;;;;;;;;4.70;1.00;;;;;;5023895;28;19948;-80
2022/01/28 03:48:17;;;;;;;;;;;4.70;1.00;;;;;;5019015;28;19913;-80
2022/01/28 03:50:43;;;;;;;;;;;4.70;1.00;;;;;;5040044;28;19914;-80
2022/01/28 03:53:08;;;;;;;;;;;4.70;1.00;;;;;;5028347;28;19913;-80
2022/01/28 03:55:34;;;;;;;;;;;4.70;1.00;;;;;;5026253;28;19909;-80
2022/01/28 03:57:59;;;;;;;;;;;4.70;1.00;;;;;;5028775;28;19913;-80
2022/01/28 04:00:28;;;;;;;;;;;4.70;1.00;;;;;;5042657;28;20402;-80
2022/01/28 04:03:04;;;;;;;;;;;4.60;1.00;;;;;;5036987;28;19916;-80
2022/01/28 04:13:30;;;;;;;;;;;4.60;1.00;;;;;;5027809;28;20286;-81
2022/01/28 04:18:24;;;;;;;;;;;4.50;1.00;;;;;;5028823;28;20354;-80
2022/01/28 04:20:49;;;;;;;;;;;4.50;1.00;;;;;;5028678;28;19917;-80
2022/01/28 04:23:15;;;;;;;;;;;4.50;1.00;;;;;;5029324;28;20391;-80
2022/01/28 04:25:40;;;;;;;;;;;4.50;1.00;;;;;;5041067;28;19914;-80
2022/01/28 04:28:06;;;;;;;;;;;4.50;1.00;;;;;;5030281;28;19917;-79
2022/01/28 04:30:31;;;;;;;;;;;4.50;1.00;;;;;;5030852;28;19918;-81
2022/01/28 04:32:57;;;;;;;;;;;4.40;1.00;;;;;;5029034;28;20016;-80
2022/01/28 04:35:22;;;;;;;;;;;4.40;1.00;;;;;;5042126;28;19914;-80
2022/01/28 04:40:19;;;;;;;;;;;4.30;1.00;;;;;;5025114;28;19920;-80
2022/01/28 04:45:58;;;;;;;;;;;4.30;1.00;;;;;;5047634;28;19986;-80
2022/01/28 04:48:41;;;;;;;;;;;4.30;1.00;;;;;;5034676;28;19910;-80
2022/01/28 04:59:22;;;;;;;;;;;4.40;1.00;;;;;;5022733;28;19917;-80
2022/01/28 05:10:03;;;;;;;;;;;4.30;1.00;;;;;;5026262;28;19925;-81
2022/01/28 05:28:20;;;;;;;;;;;4.20;1.00;;;;;;5026939;28;19960;-80
2022/01/28 05:30:45;;;;;;;;;;;4.20;1.00;;;;;;5038477;28;19975;-80
2022/01/28 05:33:11;;;;;;;;;;;4.20;1.00;;;;;;5030434;28;19918;-80
2022/01/28 05:35:36;;;;;;;;;;;4.10;1.00;;;;;;5039829;28;20436;-80
2022/01/28 05:38:02;;;;;;;;;;;4.10;1.00;;;;;;5028568;28;19948;-80
2022/01/28 05:40:27;;;;;;;;;;;4.10;1.00;;;;;;5016689;28;19914;-80
2022/01/28 05:42:53;;;;;;;;;;;4.10;1.00;;;;;;5042484;28;19972;-80
2022/01/28 05:45:18;;;;;;;;;;;4.00;1.00;;;;;;5028318;28;19914;-80
2022/01/28 05:47:44;;;;;;;;;;;4.00;1.00;;;;;;5030739;28;19945;-80
2022/01/28 05:50:09;;;;;;;;;;;4.00;1.00;;;;;;5031152;28;19917;-80
2022/01/28 05:52:35;;;;;;;;;;;4.00;1.00;;;;;;5035289;28;19914;-79
2022/01/28 05:55:00;;;;;;;;;;;3.90;1.00;;;;;;5025557;28;19928;-79
2022/01/28 05:57:26;;;;;;;;;;;3.90;1.00;;;;;;5027436;28;19909;-80
2022/01/28 05:59:51;;;;;;;;;;;3.90;1.00;;;;;;5025586;28;19920;-80
2022/01/28 06:02:18;;;;;;;;;;;3.90;1.00;;;;;;5024997;28;20263;-79
2022/01/28 06:04:44;;;;;;;;;;;3.90;1.00;;;;;;5027423;28;19956;-80
2022/01/28 06:07:09;;;;;;;;;;;3.80;1.00;;;;;;5041392;28;20409;-79
2022/01/28 06:09:35;;;;;;;;;;;3.80;1.00;;;;;;5027694;28;19964;-79
2022/01/28 06:12:00;;;;;;;;;;;3.80;1.00;;;;;;5040939;28;19994;-80
2022/01/28 06:14:25;;;;;;;;;;;3.80;1.00;;;;;;5039158;28;19917;-80
2022/01/28 06:16:51;;;;;;;;;;;3.80;1.00;;;;;;5041349;28;19917;-80
2022/01/28 06:19:17;;;;;;;;;;;3.80;1.00;;;;;;5039973;28;19924;-79
2022/01/28 06:21:43;;;;;;;;;;;3.90;1.00;;;;;;5039345;28;19983;-79
2022/01/28 06:24:08;;;;;;;;;;;3.90;1.00;;;;;;5026552;28;19914;-80
2022/01/28 06:26:34;;;;;;;;;;;3.90;1.00;;;;;;5042192;28;19917;-80
2022/01/28 06:28:59;;;;;;;;;;;3.90;1.00;;;;;;5018677;28;19917;-79
2022/01/28 06:31:24;;;;;;;;;;;4.00;1.00;;;;;;5042069;28;19909;-80
2022/01/28 06:33:50;;;;;;;;;;;3.90;1.00;;;;;;5028082;28;19993;-80
2022/01/28 06:36:16;;;;;;;;;;;3.90;1.00;;;;;;5036277;28;19914;-81
2022/01/28 06:38:41;;;;;;;;;;;3.90;1.00;;;;;;5023481;28;19920;-80
2022/01/28 06:41:06;;;;;;;;;;;3.90;1.00;;;;;;5035813;28;19924;-80
2022/01/28 06:43:32;;;;;;;;;;;3.90;1.00;;;;;;5044551;28;20008;-80
2022/01/28 06:45:57;;;;;;;;;;;3.90;1.00;;;;;;5024139;28;19920;-80
2022/01/28 06:48:23;;;;;;;;;;;3.90;1.00;;;;;;5024925;28;19909;-80
2022/01/28 06:50:48;;;;;;;;;;;3.90;1.00;;;;;;5025659;28;19945;-80
2022/01/28 06:53:14;;;;;;;;;;;3.90;1.00;;;;;;5029745;28;19929;-80
2022/01/28 06:55:40;;;;;;;;;;;4.00;1.00;;;;;;5030927;28;19932;-80
2022/01/28 06:58:07;;;;;;;;;;;4.10;1.00;;;;;;5047187;28;19894;-80
2022/01/28 07:00:36;;;;;;;;;;;4.10;1.00;;;;;;5032628;28;20045;-80
2022/01/28 07:03:09;;;;;;;;;;;4.20;1.00;;;;;;5024947;28;19909;-80
2022/01/28 07:05:35;;;;;;;;;;;4.20;1.00;;;;;;5029400;28;19916;-81
2022/01/28 07:08:01;;;;;;;;;;;4.30;1.00;;;;;;5027513;28;19921;-80
2022/01/28 07:10:27;;;;;;;;;;;4.20;1.00;;;;;;5027238;28;20017;-80
2022/01/28 07:12:54;;;;;;;;;;;4.30;1.00;;;;;;5026961;28;20305;-80
2022/01/28 07:15:21;;;;;;;;;;;4.30;1.00;;;;;;5026104;28;19914;-80
2022/01/28 07:17:47;;;;;;;;;;;4.30;1.00;;;;;;5026470;28;19917;-79
2022/01/28 07:20:12;;;;;;;;;;;4.30;1.00;;;;;;5027171;28;19923;-79
2022/01/28 07:22:38;;;;;;;;;;;4.20;1.00;;;;;;5026480;28;19914;-79
2022/01/28 07:25:04;;;;;;;;;;;4.30;1.00;;;;;;5042130;28;19921;-79
2022/01/28 07:27:29;;;;;;;;;;;4.30;1.00;;;;;;5025417;28;19980;-79
2022/01/28 07:29:55;;;;;;;;;;;4.30;1.00;;;;;;5033889;28;19936;-79
2022/01/28 07:32:22;;;;;;;;;;;4.30;1.00;;;;;;5026965;28;19925;-79
2022/01/28 07:34:48;;;;;;;;;;;4.40;1.00;;;;;;5027218;28;19921;-79
2022/01/28 07:37:13;;;;;;;;;;;4.50;1.00;;;;;;5026442;28;20001;-79
2022/01/28 07:39:39;;;;;;;;;;;4.50;1.00;;;;;;5041725;28;20223;-79
2022/01/28 07:42:04;;;;;;;;;;;4.60;1.00;;;;;;5036503;28;19914;-79
2022/01/28 07:44:31;;;;;;;;;;;4.70;1.00;;;;;;5039983;28;20290;-79
2022/01/28 07:46:57;;;;;;;;;;;4.80;1.00;;;;;;5026380;28;19977;-79
2022/01/28 07:49:22;;;;;;;;;;;4.90;1.00;;;;;;5026715;28;19968;-78
2022/01/28 07:51:48;;;;;;;;;;;5.10;1.00;;;;;;5025749;28;19901;-78
2022/01/28 07:54:14;;;;;;;;;;;5.20;1.00;;;;;;5022299;28;19920;-78
2022/01/28 07:56:39;;;;;;;;;;;5.30;1.00;;;;;;5020955;28;19914;-78
2022/01/28 07:59:05;;;;;;;;;;;5.50;1.00;;;;;;5021693;28;19921;-78
2022/01/28 08:01:30;;;;;;;;;;;5.60;1.00;;;;;;5024779;28;19929;-78
2022/01/28 08:03:56;;;;;;;;;;;5.80;1.00;;;;;;5025035;28;20340;-78
2022/01/28 08:06:21;;;;;;;;;;;6.00;99.90;;;;;;5025282;28;20298;-78
2022/01/28 08:08:47;;;;;;;;;;;6.10;99.90;;;;;;5018478;28;19917;-79
2022/01/28 08:11:13;;;;;;;;;;;6.80;99.90;;;;;;5018802;28;19922;-80
2022/01/28 08:13:38;;;;;;;;;;;8.30;99.90;;;;;;5020351;28;20144;-79
2022/01/28 08:16:04;;;;;;;;;;;9.70;1.00;;;;;;5036024;28;19906;-79
2022/01/28 08:18:29;;;;;;;;;;;11.10;57.20;;;;;;5007967;28;20104;-80
2022/01/28 08:20:55;;;;;;;;;;;12.30;1.00;;;;;;5014587;28;19945;-80
2022/01/28 08:23:20;;;;;;;;;;;13.30;1.00;;;;;;5030320;28;19921;-82
2022/01/28 08:25:48;;;;;;;;;;;13.40;1.00;;;;;;5045139;28;19977;-81
2022/01/28 08:28:14;;;;;;;;;;;13.10;1.00;;;;;;5026000;28;19906;-80
2022/01/28 08:30:40;;;;;;;;;;;13.00;1.00;;;;;;5020237;28;19925;-81
2022/01/28 08:33:06;;;;;;;;;;;13.00;1.00;;;;;;5030318;28;19909;-80
2022/01/28 08:35:36;;;;;;;;;;;12.90;1.00;;;;;;5029996;28;19936;-80
2022/01/28 08:38:02;;;;;;;;;;;12.40;1.00;;;;;;5030449;28;19910;-80
2022/01/28 08:40:29;;;;;;;;;;;11.80;1.00;;;;;;5030366;28;19922;-80
2022/01/28 08:42:55;;;;;;;;;;;11.10;1.00;;;;;;5029967;28;19917;-80
2022/01/28 08:45:21;;;;;;;;;;;12.70;1.00;;;;;;5029058;28;19910;-81
2022/01/28 08:47:47;;;;;;;;;;;14.50;1.00;;;;;;5029601;28;19914;-81
2022/01/28 08:50:12;;;;;;;;;;;15.70;1.00;;;;;;5029551;28;19918;-81
2022/01/28 08:52:38;;;;;;;;;;;16.30;1.00;;;;;;5026961;28;19993;-80
2022/01/28 08:55:04;;;;;;;;;;;15.20;1.00;;;;;;5029805;28;19909;-80
2022/01/28 08:57:29;;;;;;;;;;;13.80;1.00;;;;;;5027927;28;19924;-80
2022/01/28 08:59:55;;;;;;;;;;;12.70;1.00;;;;;;5038438;28;19973;-80
2022/01/28 09:02:20;;;;;;;;;;;14.10;1.00;;;;;;5042662;28;19913;-80
2022/01/28 09:04:46;;;;;;;;;;;15.60;1.00;;;;;;5036423;28;19913;-80
2022/01/28 09:07:12;;;;;;;;;;;16.70;1.00;;;;;;5020604;28;19909;-80
2022/01/28 09:09:47;;;;;;;;;;;17.80;1.00;;;;;;5038736;28;19953;-81
2022/01/28 09:12:48;;;;;;;;;;;18.40;1.00;;;;;;5031946;28;19921;-79
2022/01/28 09:15:05;;;;;;;;;;;19.30;1.00;;;;;;5024715;28;19952;-78
2022/01/28 09:17:30;;;;;;;;;;;20.00;1.00;;;;;;5025760;28;19909;-79
2022/01/28 09:19:56;;;;;;;;;;;20.40;1.00;;;;;;5022113;28;19913;-79
2022/01/28 09:22:21;;;;;;;;;;;20.90;1.00;;;;;;5029866;28;19924;-80
2022/01/28 09:24:47;;;;;;;;;;;21.00;1.00;;;;;;5044160;28;19924;-79
2022/01/28 09:27:12;;;;;;;;;;;21.10;1.00;;;;;;5025985;28;19928;-79
2022/01/28 09:29:38;;;;;;;;;;;21.20;1.00;;;;;;5028098;28;19968;-79
2022/01/28 09:32:04;;;;;;;;;;;21.50;1.00;;;;;;5023079;28;19910;-80
2022/01/28 09:34:29;;;;;;;;;;;21.30;1.00;;;;;;5029854;28;19924;-79
2022/01/28 09:36:55;;;;;;;;;;;21.00;1.00;;;;;;5026298;28;19913;-80
2022/01/28 09:39:21;;;;;;;;;;;21.40;1.00;;;;;;5030304;28;19909;-79
2022/01/28 09:41:48;;;;;;;;;;;21.40;1.00;;;;;;5030477;28;19944;-80
2022/01/28 09:44:18;;;;;;;;;;;21.40;1.00;;;;;;5030011;28;19996;-79
2022/01/28 09:46:43;;;;;;;;;;;21.60;1.00;;;;;;5027927;28;19985;-79
2022/01/28 09:49:10;;;;;;;;;;;21.40;1.00;;;;;;5033781;28;19918;-79
2022/01/28 09:51:36;;;;;;;;;;;20.10;1.00;;;;;;5019883;28;19935;-79
2022/01/28 09:54:02;;;;;;;;;;;18.70;1.00;;;;;;5025438;28;20358;-79
2022/01/28 09:56:28;;;;;;;;;;;17.70;1.00;;;;;;5031970;28;20012;-79
2022/01/28 09:58:54;;;;;;;;;;;16.50;1.00;;;;;;5021410;28;19936;-79
2022/01/28 10:01:19;;;;;;;;;;;15.60;1.00;;;;;;5022142;28;19917;-79
2022/01/28 10:03:45;;;;;;;;;;;14.80;1.00;;;;;;5020645;28;19917;-78
2022/01/28 10:06:11;;;;;;;;;;;14.10;1.00;;;;;;5022804;28;20494;-80
2022/01/28 10:08:37;;;;;;;;;;;13.60;1.00;;;;;;5031677;28;20484;-82
2022/01/28 10:11:07;;;;;;;;;;;13.00;1.00;;;;;;5032483;28;19924;-82
2022/01/28 10:13:57;;;;;;;;;;;12.70;1.00;;;;;;5028193;28;20472;-82
2022/01/28 10:16:20;;;;;;;;;;;12.60;1.00;;;;;;5031492;28;19913;-83
2022/01/28 10:18:48;;;;;;;;;;;12.40;1.00;;;;;;5031564;28;19917;-82
2022/01/28 10:21:30;;;;;;;;;;;12.20;1.00;;;;;;5030509;28;19936;-82
2022/01/28 10:23:56;;;;;;;;;;;12.00;1.00;;;;;;5032233;28;19910;-82
2022/01/28 10:26:28;;;;;;;;;;;11.90;1.00;;;;;;5037724;28;19898;-83
2022/01/28 10:28:54;;;;;;;;;;;11.70;1.00;;;;;;5025818;28;20338;-81
2022/01/28 10:31:19;;;;;;;;;;;11.50;1.00;;;;;;5030049;28;19920;-82
2022/01/28 10:33:45;;;;;;;;;;;11.40;1.00;;;;;;5033247;28;19942;-82
2022/01/28 10:36:10;;;;;;;;;;;11.30;1.00;;;;;;5017953;28;19958;-83
2022/01/28 10:38:36;;;;;;;;;;;11.20;1.00;;;;;;5029942;28;19913;-82
2022/01/28 10:41:16;;;;;;;;;;;11.20;1.00;;;;;;5028578;28;20004;-83
2022/01/28 10:43:52;;;;;;;;;;;11.20;1.00;;;;;;5046211;28;19936;-82
2022/01/28 10:46:26;;;;;;;;;;;11.10;1.00;;;;;;5025002;28;19957;-82
2022/01/28 10:48:56;;;;;;;;;;;11.00;1.00;;;;;;5029640;28;20005;-82
2022/01/28 10:51:23;;;;;;;;;;;10.80;1.00;;;;;;5020575;28;19992;-82
2022/01/28 10:54:01;;;;;;;;;;;10.80;1.00;;;;;;5028250;28;19913;-83
2022/01/28 10:56:27;;;;;;;;;;;10.80;1.00;;;;;;5024481;28;19913;-82
2022/01/28 10:58:52;;;;;;;;;;;11.00;1.00;;;;;;5044166;28;19913;-83
2022/01/28 11:01:18;;;;;;;;;;;11.20;1.00;;;;;;5021142;28;19924;-80
2022/01/28 11:03:44;;;;;;;;;;;11.40;1.00;;;;;;5020196;28;19922;-80
2022/01/28 11:06:09;;;;;;;;;;;11.60;1.00;;;;;;5015252;28;19913;-81
2022/01/28 11:08:35;;;;;;;;;;;11.90;1.00;;;;;;5029318;28;19921;-83
2022/01/28 11:11:01;;;;;;;;;;;12.30;1.00;;;;;;5017289;28;19929;-81
2022/01/28 11:13:27;;;;;;;;;;;12.50;1.00;;;;;;5018591;28;19924;-80
2022/01/28 11:15:54;;;;;;;;;;;12.60;1.00;;;;;;5015197;28;19943;-82
2022/01/28 11:18:19;;;;;;;;;;;12.50;1.00;;;;;;5014652;28;20328;-81
2022/01/28 11:20:57;;;;;;;;;;;12.40;1.00;;;;;;5016152;28;19922;-82
2022/01/28 11:23:29;;;;;;;;;;;13.00;1.00;;;;;;5015979;28;20388;-84
2022/01/28 11:26:09;;;;;;;;;;;14.10;1.00;;;;;;5017366;28;19913;-84
2022/01/28 11:28:38;;;;;;;;;;;14.80;1.00;;;;;;5026482;28;19914;-85
2022/01/28 11:31:04;;;;;;;;;;;15.60;1.00;;;;;;5015909;28;19981;-84
2022/01/28 11:33:42;;;;;;;;;;;16.70;1.00;;;;;;5012751;28;19972;-85
2022/01/28 11:36:07;;;;;;;;;;;17.70;1.00;;;;;;5009551;28;19928;-84
2022/01/28 11:38:34;;;;;;;;;;;18.40;1.00;;;;;;5014900;28;19910;-85
2022/01/28 11:41:05;;;;;;;;;;;18.70;1.00;;;;;;5019415;28;19920;-83
2022/01/28 11:43:32;;;;;;;;;;;17.50;1.00;;;;;;5018268;28;19928;-84
2022/01/28 11:46:04;;;;;;;;;;;17.20;1.00;;;;;;5021995;28;19913;-85
2022/01/28 11:48:49;;;;;;;;;;;17.80;1.00;;;;;;5008754;28;19913;-84
2022/01/28 11:51:15;;;;;;;;;;;18.40;1.00;;;;;;5019227;28;19918;-84
2022/01/28 11:53:55;;;;;;;;;;;18.60;1.00;;;;;;5008203;28;19921;-85
2022/01/28 11:56:26;;;;;;;;;;;19.10;1.00;;;;;;5020067;28;19920;-84
2022/01/28 11:59:08;;;;;;;;;;;19.90;1.00;;;;;;5026449;28;20428;-84
2022/01/28 12:01:40;;;;;;;;;;;20.10;1.00;;;;;;5009875;28;19941;-84
2022/01/28 12:04:24;;;;;;;;;;;19.70;1.00;;;;;;5029228;28;19909;-85
2022/01/28 12:07:04;;;;;;;;;;;20.20;1.00;;;;;;5009074;28;19952;-85
2022/01/28 12:09:33;;;;;;;;;;;20.90;1.00;;;;;;5018957;28;19917;-86
2022/01/28 12:11:59;;;;;;;;;;;21.40;1.00;;;;;;5004699;28;19949;-85
2022/01/28 12:14:44;;;;;;;;;;;21.70;1.00;;;;;;5028990;28;19940;-85
2022/01/28 12:17:36;;;;;;;;;;;21.80;1.00;;;;;;5017635;28;19917;-85
2022/01/28 12:20:14;;;;;;;;;;;21.90;1.00;;;;;;5015210;28;19956;-85
2022/01/28 12:22:58;;;;;;;;;;;21.40;99.90;;;;;;5011987;28;19924;-85
2022/01/28 12:25:36;;;;;;;;;;;20.90;99.90;;;;;;4998902;28;19913;-84
2022/01/28 12:28:14;;;;;;;;;;;19.80;99.90;;;;;;5018203;28;19972;-84
2022/01/28 12:30:41;;;;;;;;;;;19.00;99.90;;;;;;5009267;28;20049;-83
2022/01/28 12:33:08;;;;;;;;;;;19.50;99.90;;;;;;5009838;28;19924;-82
2022/01/28 12:35:35;;;;;;;;;;;19.00;99.90;;;;;;5015086;28;19925;-82
2022/01/28 12:38:02;;;;;;;;;;;18.90;99.90;;;;;;5018167;28;19952;-82
2022/01/28 12:40:35;;;;;;;;;;;19.10;99.90;;;;;;5016273;28;19940;-82
2022/01/28 12:43:01;;;;;;;;;;;19.40;99.90;;;;;;5025713;28;19932;-82
2022/01/28 12:45:26;;;;;;;;;;;18.90;99.90;;;;;;5023534;28;19914;-83
2022/01/28 12:47:52;;;;;;;;;;;18.10;99.90;;;;;;5024779;28;19924;-83
2022/01/28 12:50:19;;;;;;;;;;;18.40;99.90;;;;;;5025535;28;19918;-83
2022/01/28 12:52:45;;;;;;;;;;;18.80;99.90;;;;;;5025791;28;19917;-82
2022/01/28 12:55:12;;;;;;;;;;;18.10;99.90;;;;;;5032631;28;19940;-82
2022/01/28 12:57:41;;;;;;;;;;;17.00;99.90;;;;;;5032797;28;19913;-82
2022/01/28 13:00:07;;;;;;;;;;;16.00;99.90;;;;;;5025416;28;19921;-81
2022/01/28 13:02:33;;;;;;;;;;;15.10;99.90;;;;;;5024923;28;19918;-82
2022/01/28 13:10:19;;;;;;;;;;;13.80;99.90;;;;;;5021833;28;19932;-82
2022/01/28 13:12:45;;;;;;;;;;;13.90;99.90;;;;;;5021927;28;19913;-82
2022/01/28 13:15:11;;;;;;;;;;;14.60;99.90;;;;;;5034132;28;19909;-82
2022/01/28 13:17:37;;;;;;;;;;;15.30;99.90;;;;;;5049071;28;19920;-83
2022/01/28 13:20:05;;;;;;;;;;;16.10;99.90;;;;;;5009287;28;19913;-82
2022/01/28 13:22:31;;;;;;;;;;;16.10;99.90;;;;;;5009120;28;19910;-81
2022/01/28 13:24:57;;;;;;;;;;;15.20;99.90;;;;;;5009249;28;19914;-82
2022/01/28 13:27:36;;;;;;;;;;;14.50;99.90;;;;;;5008305;28;19917;-82
2022/01/28 13:30:12;;;;;;;;;;;13.90;99.90;;;;;;5022355;28;19910;-82
2022/01/28 13:32:40;;;;;;;;;;;13.60;99.90;;;;;;5027056;28;19956;-82
2022/01/28 13:35:10;;;;;;;;;;;14.10;99.90;;;;;;5025893;28;19917;-82
2022/01/28 13:37:37;;;;;;;;;;;14.60;99.90;;;;;;5026687;28;19981;-82
2022/01/28 13:40:04;;;;;;;;;;;14.70;99.90;;;;;;5036352;28;19918;-82
2022/01/28 13:42:30;;;;;;;;;;;15.20;99.90;;;;;;5041239;28;19914;-81
2022/01/28 13:44:58;;;;;;;;;;;15.80;99.90;;;;;;5025601;28;20394;-80
2022/01/28 13:47:25;;;;;;;;;;;16.30;99.90;;;;;;5044854;28;19968;-81
2022/01/28 13:49:56;;;;;;;;;;;15.90;99.90;;;;;;5043658;28;19913;-81
2022/01/28 13:52:31;;;;;;;;;;;15.10;99.90;;;;;;5026287;28;19909;-81
2022/01/28 13:54:57;;;;;;;;;;;14.30;99.90;;;;;;5017480;28;20451;-81
2022/01/28 13:57:27;;;;;;;;;;;13.60;99.90;;;;;;5024375;28;19914;-80
2022/01/28 13:59:59;;;;;;;;;;;13.10;99.90;;;;;;5023237;28;19917;-82
2022/01/28 14:02:25;;;;;;;;;;;12.80;99.90;;;;;;5025418;28;19913;-82
2022/01/28 14:04:52;;;;;;;;;;;12.60;99.90;;;;;;5025165;28;19914;-82
2022/01/28 14:07:20;;;;;;;;;;;12.80;99.90;;;;;;5034417;28;19967;-82
2022/01/28 14:09:45;;;;;;;;;;;12.80;99.90;;;;;;5017781;28;20284;-81
2022/01/28 14:12:21;;;;;;;;;;;13.10;99.90;;;;;;5019983;28;19914;-82
2022/01/28 14:14:48;;;;;;;;;;;13.40;99.90;;;;;;5042466;28;19921;-82
2022/01/28 14:17:14;;;;;;;;;;;13.70;99.90;;;;;;5026250;28;19928;-82
2022/01/28 14:19:41;;;;;;;;;;;14.00;99.90;;;;;;5024608;28;19917;-82
2022/01/28 14:22:08;;;;;;;;;;;14.30;99.90;;;;;;5042786;28;19917;-82
2022/01/28 14:24:35;;;;;;;;;;;14.40;99.90;;;;;;5023597;28;19928;-81
2022/01/28 14:32:16;;;;;;;;;;;14.00;99.90;;;;;;5027915;28;19940;-81
2022/01/28 14:34:42;;;;;;;;;;;13.50;99.90;;;;;;5038603;28;19925;-81
2022/01/28 14:37:07;;;;;;;;;;;13.10;99.90;;;;;;5025285;28;19929;-82
2022/01/28 14:39:35;;;;;;;;;;;12.70;99.90;;;;;;5039551;28;19918;-81
2022/01/28 14:42:02;;;;;;;;;;;12.30;99.90;;;;;;5026970;28;20005;-81
2022/01/28 14:44:32;;;;;;;;;;;11.90;99.90;;;;;;5040641;28;19918;-81
2022/01/28 14:46:57;;;;;;;;;;;11.60;99.90;;;;;;5014194;28;19921;-81
2022/01/28 14:49:23;;;;;;;;;;;11.20;99.90;;;;;;5018820;28;19914;-81
2022/01/28 14:51:55;;;;;;;;;;;10.90;99.90;;;;;;5023661;28;20282;-81
2022/01/28 14:54:26;;;;;;;;;;;10.60;99.90;;;;;;5019244;28;19913;-81
2022/01/28 14:56:52;;;;;;;;;;;10.40;99.90;;;;;;5018663;28;19920;-81
2022/01/28 14:59:18;;;;;;;;;;;10.20;99.90;;;;;;5034622;28;20401;-81
2022/01/28 15:01:43;;;;;;;;;;;10.20;99.90;;;;;;5012438;28;19909;-81
2022/01/28 15:04:09;;;;;;;;;;;10.20;99.90;;;;;;5020092;28;19914;-81
2022/01/28 15:06:34;;;;;;;;;;;10.20;99.90;;;;;;5021438;28;19913;-81
2022/01/28 15:09:02;;;;;;;;;;;10.10;99.90;;;;;;5034731;28;19914;-81
2022/01/28 15:11:44;;;;;;;;;;;10.10;99.90;;;;;;5037282;28;19918;-81
2022/01/28 15:14:10;;;;;;;;;;;10.20;99.90;;;;;;5020764;28;19945;-80
2022/01/28 15:16:36;;;;;;;;;;;10.40;99.90;;;;;;5016282;28;19932;-80
2022/01/28 15:19:02;;;;;;;;;;;10.70;99.90;;;;;;5025484;28;19913;-82
2022/01/28 15:21:27;;;;;;;;;;;10.70;99.90;;;;;;5021232;28;19917;-81
2022/01/28 15:23:53;;;;;;;;;;;10.70;99.90;;;;;;5037564;28;20099;-81
2022/01/28 15:26:18;;;;;;;;;;;10.50;99.90;;;;;;5055625;28;19909;-81
2022/01/28 15:29:01;;;;;;;;;;;10.40;99.90;;;;;;5016315;28;19980;-80
2022/01/28 15:34:36;;;;;;;;;;;10.10;99.90;;;;;;5031326;28;19940;-81
2022/01/28 15:37:02;;;;;;;;;;;9.80;99.90;;;;;;5035967;28;19917;-81
2022/01/28 15:39:34;;;;;;;;;;;9.50;99.90;;;;;;5021946;28;19913;-81
2022/01/28 15:42:00;;;;;;;;;;;9.30;1.00;;;;;;5028166;28;19917;-82
2022/01/28 15:44:25;;;;;;;;;;;9.20;1.00;;;;;;5026902;28;19917;-81
2022/01/28 15:46:53;;;;;;;;;;;9.10;1.00;;;;;;5029236;28;19909;-81
2022/01/28 15:49:19;;;;;;;;;;;9.00;1.00;;;;;;5027497;28;20404;-81
2022/01/28 15:51:44;;;;;;;;;;;8.90;1.00;;;;;;5022832;28;19918;-80
2022/01/28 15:54:11;;;;;;;;;;;8.70;1.00;;;;;;5027256;28;19924;-80
2022/01/28 15:56:37;;;;;;;;;;;8.60;1.00;;;;;;5037075;28;19952;-80
2022/01/28 15:59:03;;;;;;;;;;;8.40;1.00;;;;;;5022073;28;19913;-80
2022/01/28 16:01:28;;;;;;;;;;;8.30;1.00;;;;;;5041685;28;19920;-80
2022/01/28 16:03:54;;;;;;;;;;;8.20;1.00;;;;;;5019906;28;19913;-80
2022/01/28 16:06:20;;;;;;;;;;;8.10;1.00;;;;;;5025600;28;19913;-80
2022/01/28 16:08:45;;;;;;;;;;;8.00;1.00;;;;;;5028951;28;19924;-80
2022/01/28 16:18:38;;;;;;;;;;;7.70;99.90;;;;;;5026422;28;19914;-81
2022/01/28 16:21:04;;;;;;;;;;;7.60;99.90;;;;;;5020080;28;20442;-81
2022/01/28 16:23:30;;;;;;;;;;;7.50;99.90;;;;;;5028348;28;19913;-81
2022/01/28 16:25:56;;;;;;;;;;;7.50;99.90;;;;;;5038385;28;19956;-81
2022/01/28 16:28:22;;;;;;;;;;;7.40;99.90;;;;;;5027073;28;19971;-81